sensor_id;sensor_type;location;lat;lon;timestamp;P1;durP1;ratioP1;P2;durP2;ratioP2
26600;SDS011;14241;49.260;10.496;2023-06-26T00:01:13;7.13;;;5.97;;
26600;SDS011;14241;49.260;10.496;2023-06-26T00:03:39;9.20;;;6.38;;
26600;SDS011;14241;49.260;10.496;2023-06-26T00:06:04;8.82;;;6.10;;
26600;SDS011;14241;49.260;10.496;2023-06-26T00:08:29;6.90;;;5.93;;
26600;SDS011;14241;49.260;10.496;2023-06-26T00:10:54;7.40;;;5.90;;
26600;SDS011;14241;49.260;10.496;2023-06-26T00:13:21;6.93;;;5.70;;
26600;SDS011;14241;49.260;10.496;2023-06-26T00:15:46;7.10;;;5.78;;
26600;SDS011;14241;49.260;10.496;2023-06-26T00:18:11;7.63;;;6.40;;
26600;SDS011;14241;49.260;10.496;2023-06-26T00:20:36;8.37;;;5.73;;
26600;SDS011;14241;49.260;10.496;2023-06-26T00:23:01;9.60;;;6.27;;
26600;SDS011;14241;49.260;10.496;2023-06-26T00:25:29;6.70;;;6.00;;
26600;SDS011;14241;49.260;10.496;2023-06-26T00:27:54;9.00;;;6.17;;
26600;SDS011;14241;49.260;10.496;2023-06-26T00:30:19;6.32;;;5.68;;
26600;SDS011;14241;49.260;10.496;2023-06-26T00:32:44;7.63;;;6.13;;
26600;SDS011;14241;49.260;10.496;2023-06-26T00:35:10;8.03;;;6.03;;
26600;SDS011;14241;49.260;10.496;2023-06-26T00:37:35;7.57;;;6.20;;
26600;SDS011;14241;49.260;10.496;2023-06-26T00:40:00;7.20;;;6.35;;
26600;SDS011;14241;49.260;10.496;2023-06-26T00:42:26;7.95;;;6.22;;
26600;SDS011;14241;49.260;10.496;2023-06-26T00:44:51;6.93;;;6.23;;
26600;SDS011;14241;49.260;10.496;2023-06-26T00:47:16;8.13;;;6.30;;
26600;SDS011;14241;49.260;10.496;2023-06-26T00:49:42;6.93;;;5.97;;
26600;SDS011;14241;49.260;10.496;2023-06-26T00:52:07;6.70;;;5.70;;
26600;SDS011;14241;49.260;10.496;2023-06-26T00:54:33;8.40;;;6.50;;
26600;SDS011;14241;49.260;10.496;2023-06-26T00:56:58;9.05;;;6.72;;
26600;SDS011;14241;49.260;10.496;2023-06-26T00:59:23;7.83;;;6.00;;
26600;SDS011;14241;49.260;10.496;2023-06-26T01:01:48;8.07;;;5.83;;
26600;SDS011;14241;49.260;10.496;2023-06-26T01:04:14;7.60;;;6.70;;
26600;SDS011;14241;49.260;10.496;2023-06-26T01:06:43;9.25;;;6.55;;
26600;SDS011;14241;49.260;10.496;2023-06-26T01:09:08;6.93;;;6.22;;
26600;SDS011;14241;49.260;10.496;2023-06-26T01:11:34;8.80;;;6.20;;
26600;SDS011;14241;49.260;10.496;2023-06-26T01:13:59;7.97;;;6.27;;
26600;SDS011;14241;49.260;10.496;2023-06-26T01:16:26;8.90;;;6.47;;
26600;SDS011;14241;49.260;10.496;2023-06-26T01:18:52;11.85;;;6.43;;
26600;SDS011;14241;49.260;10.496;2023-06-26T01:21:18;8.60;;;6.60;;
26600;SDS011;14241;49.260;10.496;2023-06-26T01:26:19;7.95;;;6.88;;
26600;SDS011;14241;49.260;10.496;2023-06-26T01:28:44;8.93;;;7.10;;
26600;SDS011;14241;49.260;10.496;2023-06-26T01:31:10;8.23;;;6.85;;
26600;SDS011;14241;49.260;10.496;2023-06-26T01:33:35;8.70;;;7.22;;
26600;SDS011;14241;49.260;10.496;2023-06-26T01:36:01;8.20;;;7.18;;
26600;SDS011;14241;49.260;10.496;2023-06-26T01:38:26;8.00;;;6.40;;
26600;SDS011;14241;49.260;10.496;2023-06-26T01:40:52;8.55;;;6.38;;
26600;SDS011;14241;49.260;10.496;2023-06-26T01:45:42;10.03;;;7.40;;
26600;SDS011;14241;49.260;10.496;2023-06-26T01:48:10;7.63;;;6.82;;
26600;SDS011;14241;49.260;10.496;2023-06-26T01:50:37;10.27;;;7.18;;
26600;SDS011;14241;49.260;10.496;2023-06-26T01:53:13;7.43;;;6.38;;
26600;SDS011;14241;49.260;10.496;2023-06-26T01:55:47;8.05;;;6.82;;
26600;SDS011;14241;49.260;10.496;2023-06-26T01:58:15;8.35;;;7.05;;
26600;SDS011;14241;49.260;10.496;2023-06-26T02:00:42;10.55;;;6.90;;
26600;SDS011;14241;49.260;10.496;2023-06-26T02:03:07;7.68;;;6.75;;
26600;SDS011;14241;49.260;10.496;2023-06-26T02:05:32;11.07;;;6.95;;
26600;SDS011;14241;49.260;10.496;2023-06-26T02:07:58;8.33;;;7.23;;
26600;SDS011;14241;49.260;10.496;2023-06-26T02:10:23;9.05;;;7.32;;
26600;SDS011;14241;49.260;10.496;2023-06-26T02:12:49;9.20;;;6.78;;
26600;SDS011;14241;49.260;10.496;2023-06-26T02:15:15;8.55;;;6.72;;
26600;SDS011;14241;49.260;10.496;2023-06-26T02:17:40;9.40;;;6.90;;
26600;SDS011;14241;49.260;10.496;2023-06-26T02:20:05;8.48;;;7.10;;
26600;SDS011;14241;49.260;10.496;2023-06-26T02:22:31;8.00;;;7.15;;
26600;SDS011;14241;49.260;10.496;2023-06-26T02:24:56;8.38;;;7.15;;
26600;SDS011;14241;49.260;10.496;2023-06-26T02:27:21;8.60;;;7.23;;
26600;SDS011;14241;49.260;10.496;2023-06-26T02:29:47;8.37;;;7.03;;
26600;SDS011;14241;49.260;10.496;2023-06-26T02:32:12;9.63;;;7.67;;
26600;SDS011;14241;49.260;10.496;2023-06-26T02:34:37;10.73;;;6.90;;
26600;SDS011;14241;49.260;10.496;2023-06-26T02:37:02;8.53;;;6.87;;
26600;SDS011;14241;49.260;10.496;2023-06-26T02:39:28;9.93;;;7.20;;
26600;SDS011;14241;49.260;10.496;2023-06-26T02:41:53;9.60;;;7.55;;
26600;SDS011;14241;49.260;10.496;2023-06-26T02:44:18;8.50;;;6.85;;
26600;SDS011;14241;49.260;10.496;2023-06-26T02:46:44;8.80;;;7.20;;
26600;SDS011;14241;49.260;10.496;2023-06-26T02:49:09;9.38;;;7.13;;
26600;SDS011;14241;49.260;10.496;2023-06-26T02:51:35;9.05;;;6.95;;
26600;SDS011;14241;49.260;10.496;2023-06-26T02:54:00;9.52;;;7.35;;
26600;SDS011;14241;49.260;10.496;2023-06-26T02:56:26;10.93;;;7.38;;
26600;SDS011;14241;49.260;10.496;2023-06-26T02:58:57;9.32;;;6.60;;
26600;SDS011;14241;49.260;10.496;2023-06-26T03:01:23;8.60;;;7.68;;
26600;SDS011;14241;49.260;10.496;2023-06-26T03:03:48;9.60;;;7.10;;
26600;SDS011;14241;49.260;10.496;2023-06-26T03:06:13;9.20;;;6.90;;
26600;SDS011;14241;49.260;10.496;2023-06-26T03:08:39;8.10;;;6.75;;
26600;SDS011;14241;49.260;10.496;2023-06-26T03:11:05;12.20;;;7.35;;
26600;SDS011;14241;49.260;10.496;2023-06-26T03:13:30;9.07;;;6.40;;
26600;SDS011;14241;49.260;10.496;2023-06-26T03:15:55;10.65;;;7.00;;
26600;SDS011;14241;49.260;10.496;2023-06-26T03:18:21;8.95;;;7.55;;
26600;SDS011;14241;49.260;10.496;2023-06-26T03:20:46;8.60;;;7.13;;
26600;SDS011;14241;49.260;10.496;2023-06-26T03:23:11;8.15;;;6.97;;
26600;SDS011;14241;49.260;10.496;2023-06-26T03:25:36;11.27;;;7.67;;
26600;SDS011;14241;49.260;10.496;2023-06-26T03:28:01;8.60;;;7.07;;
26600;SDS011;14241;49.260;10.496;2023-06-26T03:30:27;9.27;;;7.68;;
26600;SDS011;14241;49.260;10.496;2023-06-26T03:32:52;8.50;;;7.27;;
26600;SDS011;14241;49.260;10.496;2023-06-26T03:35:17;9.80;;;7.13;;
26600;SDS011;14241;49.260;10.496;2023-06-26T03:37:43;10.15;;;7.55;;
26600;SDS011;14241;49.260;10.496;2023-06-26T03:40:08;9.25;;;7.63;;
26600;SDS011;14241;49.260;10.496;2023-06-26T03:42:34;8.88;;;7.63;;
26600;SDS011;14241;49.260;10.496;2023-06-26T03:44:59;10.80;;;8.30;;
26600;SDS011;14241;49.260;10.496;2023-06-26T03:47:24;9.00;;;7.23;;
26600;SDS011;14241;49.260;10.496;2023-06-26T03:49:50;9.00;;;7.13;;
26600;SDS011;14241;49.260;10.496;2023-06-26T03:52:15;10.30;;;7.80;;
26600;SDS011;14241;49.260;10.496;2023-06-26T03:54:40;9.97;;;7.47;;
26600;SDS011;14241;49.260;10.496;2023-06-26T03:57:06;9.20;;;7.40;;
26600;SDS011;14241;49.260;10.496;2023-06-26T03:59:31;9.52;;;7.85;;
26600;SDS011;14241;49.260;10.496;2023-06-26T04:01:57;8.38;;;7.47;;
26600;SDS011;14241;49.260;10.496;2023-06-26T04:04:22;11.17;;;7.47;;
26600;SDS011;14241;49.260;10.496;2023-06-26T04:06:47;8.80;;;7.50;;
26600;SDS011;14241;49.260;10.496;2023-06-26T04:09:12;8.50;;;7.00;;
26600;SDS011;14241;49.260;10.496;2023-06-26T04:11:37;9.88;;;7.40;;
26600;SDS011;14241;49.260;10.496;2023-06-26T04:14:03;9.77;;;7.70;;
26600;SDS011;14241;49.260;10.496;2023-06-26T04:16:28;10.10;;;7.87;;
26600;SDS011;14241;49.260;10.496;2023-06-26T04:18:53;9.17;;;7.47;;
26600;SDS011;14241;49.260;10.496;2023-06-26T04:21:20;11.10;;;8.27;;
26600;SDS011;14241;49.260;10.496;2023-06-26T04:23:46;9.35;;;7.15;;
26600;SDS011;14241;49.260;10.496;2023-06-26T04:26:12;10.43;;;7.28;;
26600;SDS011;14241;49.260;10.496;2023-06-26T04:28:39;10.57;;;8.25;;
26600;SDS011;14241;49.260;10.496;2023-06-26T04:31:05;9.13;;;7.38;;
26600;SDS011;14241;49.260;10.496;2023-06-26T04:33:30;8.35;;;7.20;;
26600;SDS011;14241;49.260;10.496;2023-06-26T04:35:55;10.80;;;8.38;;
26600;SDS011;14241;49.260;10.496;2023-06-26T04:38:20;10.77;;;7.90;;
26600;SDS011;14241;49.260;10.496;2023-06-26T04:40:46;11.88;;;7.53;;
26600;SDS011;14241;49.260;10.496;2023-06-26T04:43:12;9.05;;;7.47;;
26600;SDS011;14241;49.260;10.496;2023-06-26T04:45:37;12.25;;;7.47;;
26600;SDS011;14241;49.260;10.496;2023-06-26T04:48:02;10.68;;;7.63;;
26600;SDS011;14241;49.260;10.496;2023-06-26T04:50:28;11.18;;;7.63;;
26600;SDS011;14241;49.260;10.496;2023-06-26T04:52:57;11.15;;;7.65;;
26600;SDS011;14241;49.260;10.496;2023-06-26T04:55:25;11.18;;;8.38;;
26600;SDS011;14241;49.260;10.496;2023-06-26T04:57:50;11.15;;;8.48;;
26600;SDS011;14241;49.260;10.496;2023-06-26T05:00:16;12.00;;;8.45;;
26600;SDS011;14241;49.260;10.496;2023-06-26T05:02:41;9.80;;;7.65;;
26600;SDS011;14241;49.260;10.496;2023-06-26T05:05:06;9.47;;;8.33;;
26600;SDS011;14241;49.260;10.496;2023-06-26T05:07:31;9.43;;;7.85;;
26600;SDS011;14241;49.260;10.496;2023-06-26T05:09:57;8.63;;;7.60;;
26600;SDS011;14241;49.260;10.496;2023-06-26T05:12:22;10.85;;;8.30;;
26600;SDS011;14241;49.260;10.496;2023-06-26T05:14:47;9.17;;;7.80;;
26600;SDS011;14241;49.260;10.496;2023-06-26T05:17:15;11.87;;;8.80;;
26600;SDS011;14241;49.260;10.496;2023-06-26T05:19:40;10.10;;;8.27;;
26600;SDS011;14241;49.260;10.496;2023-06-26T05:22:06;12.63;;;7.80;;
26600;SDS011;14241;49.260;10.496;2023-06-26T05:24:33;10.70;;;8.15;;
26600;SDS011;14241;49.260;10.496;2023-06-26T05:26:58;9.35;;;7.63;;
26600;SDS011;14241;49.260;10.496;2023-06-26T05:29:24;13.30;;;7.90;;
26600;SDS011;14241;49.260;10.496;2023-06-26T05:31:49;9.13;;;7.78;;
26600;SDS011;14241;49.260;10.496;2023-06-26T05:34:16;10.82;;;8.27;;
26600;SDS011;14241;49.260;10.496;2023-06-26T05:36:42;10.73;;;7.72;;
26600;SDS011;14241;49.260;10.496;2023-06-26T05:39:08;9.40;;;7.43;;
26600;SDS011;14241;49.260;10.496;2023-06-26T05:41:34;11.40;;;8.10;;
26600;SDS011;14241;49.260;10.496;2023-06-26T05:43:59;8.48;;;7.50;;
26600;SDS011;14241;49.260;10.496;2023-06-26T05:46:24;9.57;;;7.77;;
26600;SDS011;14241;49.260;10.496;2023-06-26T05:48:49;9.97;;;7.20;;
26600;SDS011;14241;49.260;10.496;2023-06-26T05:51:15;9.33;;;7.87;;
26600;SDS011;14241;49.260;10.496;2023-06-26T05:53:40;10.05;;;8.20;;
26600;SDS011;14241;49.260;10.496;2023-06-26T05:56:05;9.65;;;8.23;;
26600;SDS011;14241;49.260;10.496;2023-06-26T05:58:31;13.13;;;8.48;;
26600;SDS011;14241;49.260;10.496;2023-06-26T06:00:57;9.48;;;7.93;;
26600;SDS011;14241;49.260;10.496;2023-06-26T06:03:22;10.18;;;8.13;;
26600;SDS011;14241;49.260;10.496;2023-06-26T06:05:47;10.75;;;8.43;;
26600;SDS011;14241;49.260;10.496;2023-06-26T06:08:13;10.23;;;7.50;;
26600;SDS011;14241;49.260;10.496;2023-06-26T06:10:38;10.77;;;8.23;;
26600;SDS011;14241;49.260;10.496;2023-06-26T06:13:03;8.88;;;7.65;;
26600;SDS011;14241;49.260;10.496;2023-06-26T06:15:28;11.40;;;7.87;;
26600;SDS011;14241;49.260;10.496;2023-06-26T06:17:54;9.18;;;7.70;;
26600;SDS011;14241;49.260;10.496;2023-06-26T06:20:19;11.18;;;7.47;;
26600;SDS011;14241;49.260;10.496;2023-06-26T06:22:45;14.10;;;7.72;;
26600;SDS011;14241;49.260;10.496;2023-06-26T06:25:10;15.50;;;7.80;;
26600;SDS011;14241;49.260;10.496;2023-06-26T06:27:35;9.07;;;6.87;;
26600;SDS011;14241;49.260;10.496;2023-06-26T06:30:00;10.57;;;7.20;;
26600;SDS011;14241;49.260;10.496;2023-06-26T06:32:25;11.20;;;7.70;;
26600;SDS011;14241;49.260;10.496;2023-06-26T06:34:51;9.45;;;7.15;;
26600;SDS011;14241;49.260;10.496;2023-06-26T06:37:16;8.40;;;7.32;;
26600;SDS011;14241;49.260;10.496;2023-06-26T06:39:41;11.03;;;6.90;;
26600;SDS011;14241;49.260;10.496;2023-06-26T06:42:06;8.80;;;7.33;;
26600;SDS011;14241;49.260;10.496;2023-06-26T06:44:32;8.45;;;7.18;;
26600;SDS011;14241;49.260;10.496;2023-06-26T06:46:57;8.67;;;6.77;;
26600;SDS011;14241;49.260;10.496;2023-06-26T06:49:22;9.02;;;6.93;;
26600;SDS011;14241;49.260;10.496;2023-06-26T06:51:47;9.20;;;7.37;;
26600;SDS011;14241;49.260;10.496;2023-06-26T06:54:14;10.13;;;6.97;;
26600;SDS011;14241;49.260;10.496;2023-06-26T06:56:40;8.88;;;7.50;;
26600;SDS011;14241;49.260;10.496;2023-06-26T06:59:05;8.60;;;7.23;;
26600;SDS011;14241;49.260;10.496;2023-06-26T07:01:31;9.25;;;7.43;;
26600;SDS011;14241;49.260;10.496;2023-06-26T07:03:56;9.15;;;7.35;;
26600;SDS011;14241;49.260;10.496;2023-06-26T07:06:22;8.85;;;6.95;;
26600;SDS011;14241;49.260;10.496;2023-06-26T07:08:48;9.07;;;7.47;;
26600;SDS011;14241;49.260;10.496;2023-06-26T07:11:13;8.77;;;6.90;;
26600;SDS011;14241;49.260;10.496;2023-06-26T07:13:38;8.00;;;6.50;;
26600;SDS011;14241;49.260;10.496;2023-06-26T07:16:03;7.73;;;6.57;;
26600;SDS011;14241;49.260;10.496;2023-06-26T07:18:29;8.95;;;7.28;;
26600;SDS011;14241;49.260;10.496;2023-06-26T07:20:54;10.77;;;6.53;;
26600;SDS011;14241;49.260;10.496;2023-06-26T07:23:19;8.43;;;6.67;;
26600;SDS011;14241;49.260;10.496;2023-06-26T07:25:44;7.10;;;6.13;;
26600;SDS011;14241;49.260;10.496;2023-06-26T07:28:12;9.83;;;5.97;;
26600;SDS011;14241;49.260;10.496;2023-06-26T07:30:37;9.15;;;6.68;;
26600;SDS011;14241;49.260;10.496;2023-06-26T07:33:02;8.60;;;6.60;;
26600;SDS011;14241;49.260;10.496;2023-06-26T07:35:28;8.57;;;6.57;;
26600;SDS011;14241;49.260;10.496;2023-06-26T07:37:53;7.40;;;6.30;;
26600;SDS011;14241;49.260;10.496;2023-06-26T07:40:18;7.50;;;6.60;;
26600;SDS011;14241;49.260;10.496;2023-06-26T07:42:44;9.27;;;7.13;;
26600;SDS011;14241;49.260;10.496;2023-06-26T07:45:09;9.27;;;6.38;;
26600;SDS011;14241;49.260;10.496;2023-06-26T07:47:37;7.40;;;6.32;;
26600;SDS011;14241;49.260;10.496;2023-06-26T07:50:03;7.47;;;6.40;;
26600;SDS011;14241;49.260;10.496;2023-06-26T07:52:28;8.18;;;6.88;;
26600;SDS011;14241;49.260;10.496;2023-06-26T07:54:53;8.83;;;6.50;;
26600;SDS011;14241;49.260;10.496;2023-06-26T07:57:18;7.50;;;6.03;;
26600;SDS011;14241;49.260;10.496;2023-06-26T07:59:43;9.70;;;6.87;;
26600;SDS011;14241;49.260;10.496;2023-06-26T08:02:09;11.27;;;7.03;;
26600;SDS011;14241;49.260;10.496;2023-06-26T08:04:34;8.43;;;6.93;;
26600;SDS011;14241;49.260;10.496;2023-06-26T08:06:59;10.67;;;6.47;;
26600;SDS011;14241;49.260;10.496;2023-06-26T08:09:28;7.70;;;6.25;;
26600;SDS011;14241;49.260;10.496;2023-06-26T08:11:54;8.48;;;6.35;;
26600;SDS011;14241;49.260;10.496;2023-06-26T08:14:19;7.80;;;6.13;;
26600;SDS011;14241;49.260;10.496;2023-06-26T08:16:45;9.50;;;6.30;;
26600;SDS011;14241;49.260;10.496;2023-06-26T08:19:11;7.40;;;5.97;;
26600;SDS011;14241;49.260;10.496;2023-06-26T08:21:37;8.20;;;6.72;;
26600;SDS011;14241;49.260;10.496;2023-06-26T08:24:02;8.50;;;6.17;;
26600;SDS011;14241;49.260;10.496;2023-06-26T08:26:27;8.52;;;6.22;;
26600;SDS011;14241;49.260;10.496;2023-06-26T08:28:53;10.25;;;6.18;;
26600;SDS011;14241;49.260;10.496;2023-06-26T08:31:18;7.17;;;5.73;;
26600;SDS011;14241;49.260;10.496;2023-06-26T08:33:44;7.85;;;6.28;;
26600;SDS011;14241;49.260;10.496;2023-06-26T08:36:09;8.45;;;5.78;;
26600;SDS011;14241;49.260;10.496;2023-06-26T08:38:34;11.10;;;6.23;;
26600;SDS011;14241;49.260;10.496;2023-06-26T08:41:00;8.07;;;6.30;;
26600;SDS011;14241;49.260;10.496;2023-06-26T08:43:25;9.30;;;6.40;;
26600;SDS011;14241;49.260;10.496;2023-06-26T08:45:52;9.23;;;6.32;;
26600;SDS011;14241;49.260;10.496;2023-06-26T08:48:17;7.75;;;5.78;;
26600;SDS011;14241;49.260;10.496;2023-06-26T08:50:44;8.00;;;6.03;;
26600;SDS011;14241;49.260;10.496;2023-06-26T08:53:09;7.30;;;5.70;;
26600;SDS011;14241;49.260;10.496;2023-06-26T08:55:39;7.07;;;6.07;;
26600;SDS011;14241;49.260;10.496;2023-06-26T08:58:05;7.45;;;6.53;;
26600;SDS011;14241;49.260;10.496;2023-06-26T09:00:31;6.90;;;5.80;;
26600;SDS011;14241;49.260;10.496;2023-06-26T09:02:56;8.60;;;5.72;;
26600;SDS011;14241;49.260;10.496;2023-06-26T09:05:21;8.00;;;6.40;;
26600;SDS011;14241;49.260;10.496;2023-06-26T09:07:47;7.90;;;6.30;;
26600;SDS011;14241;49.260;10.496;2023-06-26T09:10:12;8.43;;;6.00;;
26600;SDS011;14241;49.260;10.496;2023-06-26T09:12:37;5.82;;;5.13;;
26600;SDS011;14241;49.260;10.496;2023-06-26T09:15:03;7.13;;;5.78;;
26600;SDS011;14241;49.260;10.496;2023-06-26T09:17:30;6.57;;;5.60;;
26600;SDS011;14241;49.260;10.496;2023-06-26T09:19:55;5.50;;;4.90;;
26600;SDS011;14241;49.260;10.496;2023-06-26T09:22:20;6.00;;;5.27;;
26600;SDS011;14241;49.260;10.496;2023-06-26T09:24:46;7.60;;;5.13;;
26600;SDS011;14241;49.260;10.496;2023-06-26T09:27:12;6.33;;;4.83;;
26600;SDS011;14241;49.260;10.496;2023-06-26T09:29:37;6.22;;;4.85;;
26600;SDS011;14241;49.260;10.496;2023-06-26T09:32:03;5.93;;;4.50;;
26600;SDS011;14241;49.260;10.496;2023-06-26T09:34:31;6.70;;;5.18;;
26600;SDS011;14241;49.260;10.496;2023-06-26T09:36:57;6.38;;;4.95;;
26600;SDS011;14241;49.260;10.496;2023-06-26T09:39:22;7.38;;;5.40;;
26600;SDS011;14241;49.260;10.496;2023-06-26T09:41:48;5.87;;;4.80;;
26600;SDS011;14241;49.260;10.496;2023-06-26T09:44:13;9.63;;;5.03;;
26600;SDS011;14241;49.260;10.496;2023-06-26T09:46:39;8.48;;;5.05;;
26600;SDS011;14241;49.260;10.496;2023-06-26T09:49:05;5.57;;;4.70;;
26600;SDS011;14241;49.260;10.496;2023-06-26T09:51:31;11.73;;;4.90;;
26600;SDS011;14241;49.260;10.496;2023-06-26T09:53:57;10.27;;;4.97;;
26600;SDS011;14241;49.260;10.496;2023-06-26T09:56:23;7.18;;;5.18;;
26600;SDS011;14241;49.260;10.496;2023-06-26T09:58:49;7.03;;;5.55;;
26600;SDS011;14241;49.260;10.496;2023-06-26T10:01:14;6.72;;;5.25;;
26600;SDS011;14241;49.260;10.496;2023-06-26T10:03:39;5.93;;;4.47;;
26600;SDS011;14241;49.260;10.496;2023-06-26T10:06:05;5.55;;;4.88;;
26600;SDS011;14241;49.260;10.496;2023-06-26T10:08:31;6.80;;;4.65;;
26600;SDS011;14241;49.260;10.496;2023-06-26T10:10:58;5.80;;;4.38;;
26600;SDS011;14241;49.260;10.496;2023-06-26T10:13:25;4.67;;;3.97;;
26600;SDS011;14241;49.260;10.496;2023-06-26T10:15:52;7.07;;;4.07;;
26600;SDS011;14241;49.260;10.496;2023-06-26T10:18:18;8.52;;;4.40;;
26600;SDS011;14241;49.260;10.496;2023-06-26T10:20:47;6.47;;;4.57;;
26600;SDS011;14241;49.260;10.496;2023-06-26T10:23:13;6.93;;;4.40;;
26600;SDS011;14241;49.260;10.496;2023-06-26T10:25:39;5.85;;;4.40;;
26600;SDS011;14241;49.260;10.496;2023-06-26T10:28:06;6.30;;;4.35;;
26600;SDS011;14241;49.260;10.496;2023-06-26T10:30:33;6.97;;;4.03;;
26600;SDS011;14241;49.260;10.496;2023-06-26T10:32:59;6.28;;;4.85;;
26600;SDS011;14241;49.260;10.496;2023-06-26T10:35:25;5.88;;;4.22;;
26600;SDS011;14241;49.260;10.496;2023-06-26T10:37:50;6.03;;;3.95;;
26600;SDS011;14241;49.260;10.496;2023-06-26T10:40:24;5.30;;;3.60;;
26600;SDS011;14241;49.260;10.496;2023-06-26T10:42:51;4.72;;;4.03;;
26600;SDS011;14241;49.260;10.496;2023-06-26T10:45:30;8.57;;;4.30;;
26600;SDS011;14241;49.260;10.496;2023-06-26T10:47:55;4.18;;;3.78;;
26600;SDS011;14241;49.260;10.496;2023-06-26T10:53:09;6.73;;;3.37;;
26600;SDS011;14241;49.260;10.496;2023-06-26T10:55:33;4.38;;;3.92;;
26600;SDS011;14241;49.260;10.496;2023-06-26T10:57:58;4.90;;;3.77;;
26600;SDS011;14241;49.260;10.496;2023-06-26T11:00:23;6.10;;;4.43;;
26600;SDS011;14241;49.260;10.496;2023-06-26T11:02:49;3.97;;;3.37;;
26600;SDS011;14241;49.260;10.496;2023-06-26T11:05:29;4.82;;;3.42;;
26600;SDS011;14241;49.260;10.496;2023-06-26T11:08:04;5.95;;;4.32;;
26600;SDS011;14241;49.260;10.496;2023-06-26T11:12:55;5.47;;;3.67;;
26600;SDS011;14241;49.260;10.496;2023-06-26T11:15:22;3.95;;;3.28;;
26600;SDS011;14241;49.260;10.496;2023-06-26T11:17:49;4.13;;;3.33;;
26600;SDS011;14241;49.260;10.496;2023-06-26T11:20:15;3.83;;;3.00;;
26600;SDS011;14241;49.260;10.496;2023-06-26T11:22:43;5.72;;;3.53;;
26600;SDS011;14241;49.260;10.496;2023-06-26T11:25:09;5.00;;;3.53;;
26600;SDS011;14241;49.260;10.496;2023-06-26T11:30:03;5.80;;;3.72;;
26600;SDS011;14241;49.260;10.496;2023-06-26T11:32:28;5.22;;;3.78;;
26600;SDS011;14241;49.260;10.496;2023-06-26T11:34:54;5.07;;;4.07;;
26600;SDS011;14241;49.260;10.496;2023-06-26T11:37:20;4.45;;;3.85;;
26600;SDS011;14241;49.260;10.496;2023-06-26T11:39:45;4.80;;;3.42;;
26600;SDS011;14241;49.260;10.496;2023-06-26T11:42:11;8.40;;;4.35;;
26600;SDS011;14241;49.260;10.496;2023-06-26T11:44:40;6.37;;;3.83;;
26600;SDS011;14241;49.260;10.496;2023-06-26T11:47:06;5.68;;;4.45;;
26600;SDS011;14241;49.260;10.496;2023-06-26T11:49:31;4.88;;;3.60;;
26600;SDS011;14241;49.260;10.496;2023-06-26T11:51:56;4.60;;;3.70;;
26600;SDS011;14241;49.260;10.496;2023-06-26T11:54:27;4.93;;;4.20;;
26600;SDS011;14241;49.260;10.496;2023-06-26T11:56:54;5.32;;;4.45;;
26600;SDS011;14241;49.260;10.496;2023-06-26T11:59:21;5.55;;;4.18;;
26600;SDS011;14241;49.260;10.496;2023-06-26T12:01:48;5.00;;;3.97;;
26600;SDS011;14241;49.260;10.496;2023-06-26T12:04:15;4.18;;;3.78;;
26600;SDS011;14241;49.260;10.496;2023-06-26T12:06:50;6.57;;;4.13;;
26600;SDS011;14241;49.260;10.496;2023-06-26T12:09:17;6.32;;;4.30;;
26600;SDS011;14241;49.260;10.496;2023-06-26T12:11:43;4.47;;;4.05;;
26600;SDS011;14241;49.260;10.496;2023-06-26T12:14:09;5.90;;;4.47;;
26600;SDS011;14241;49.260;10.496;2023-06-26T12:16:35;5.32;;;3.97;;
26600;SDS011;14241;49.260;10.496;2023-06-26T12:19:01;6.32;;;4.40;;
26600;SDS011;14241;49.260;10.496;2023-06-26T12:24:10;4.63;;;4.00;;
26600;SDS011;14241;49.260;10.496;2023-06-26T12:26:37;5.72;;;4.35;;
26600;SDS011;14241;49.260;10.496;2023-06-26T12:29:06;6.00;;;4.30;;
26600;SDS011;14241;49.260;10.496;2023-06-26T12:31:31;5.60;;;3.80;;
26600;SDS011;14241;49.260;10.496;2023-06-26T12:33:57;5.43;;;4.05;;
26600;SDS011;14241;49.260;10.496;2023-06-26T12:36:22;6.80;;;4.53;;
26600;SDS011;14241;49.260;10.496;2023-06-26T12:38:48;5.97;;;4.40;;
26600;SDS011;14241;49.260;10.496;2023-06-26T12:41:13;5.82;;;4.75;;
26600;SDS011;14241;49.260;10.496;2023-06-26T12:43:39;5.47;;;4.03;;
26600;SDS011;14241;49.260;10.496;2023-06-26T12:46:05;5.47;;;4.10;;
26600;SDS011;14241;49.260;10.496;2023-06-26T12:48:37;7.00;;;4.15;;
26600;SDS011;14241;49.260;10.496;2023-06-26T12:51:09;5.10;;;4.45;;
26600;SDS011;14241;49.260;10.496;2023-06-26T12:53:35;4.85;;;4.18;;
26600;SDS011;14241;49.260;10.496;2023-06-26T12:56:00;6.27;;;4.53;;
26600;SDS011;14241;49.260;10.496;2023-06-26T12:58:25;4.93;;;4.40;;
26600;SDS011;14241;49.260;10.496;2023-06-26T13:00:50;7.53;;;4.37;;
26600;SDS011;14241;49.260;10.496;2023-06-26T13:03:16;7.87;;;4.70;;
26600;SDS011;14241;49.260;10.496;2023-06-26T13:05:41;6.65;;;4.60;;
26600;SDS011;14241;49.260;10.496;2023-06-26T13:08:06;5.37;;;4.40;;
26600;SDS011;14241;49.260;10.496;2023-06-26T13:10:33;5.82;;;4.60;;
26600;SDS011;14241;49.260;10.496;2023-06-26T13:12:58;6.27;;;4.63;;
26600;SDS011;14241;49.260;10.496;2023-06-26T13:15:23;6.70;;;4.77;;
26600;SDS011;14241;49.260;10.496;2023-06-26T13:17:48;8.20;;;4.53;;
26600;SDS011;14241;49.260;10.496;2023-06-26T13:20:14;7.67;;;4.73;;
26600;SDS011;14241;49.260;10.496;2023-06-26T13:22:39;4.57;;;3.67;;
26600;SDS011;14241;49.260;10.496;2023-06-26T13:25:04;7.00;;;4.83;;
26600;SDS011;14241;49.260;10.496;2023-06-26T13:27:29;5.10;;;4.60;;
26600;SDS011;14241;49.260;10.496;2023-06-26T13:29:55;4.90;;;4.20;;
26600;SDS011;14241;49.260;10.496;2023-06-26T13:32:20;5.33;;;4.83;;
26600;SDS011;14241;49.260;10.496;2023-06-26T13:34:45;8.30;;;5.03;;
26600;SDS011;14241;49.260;10.496;2023-06-26T13:37:11;6.45;;;5.05;;
26600;SDS011;14241;49.260;10.496;2023-06-26T13:39:36;7.00;;;5.18;;
26600;SDS011;14241;49.260;10.496;2023-06-26T13:42:01;5.93;;;4.70;;
26600;SDS011;14241;49.260;10.496;2023-06-26T13:44:26;11.13;;;5.23;;
26600;SDS011;14241;49.260;10.496;2023-06-26T13:46:52;5.27;;;4.60;;
26600;SDS011;14241;49.260;10.496;2023-06-26T13:49:18;6.38;;;5.15;;
26600;SDS011;14241;49.260;10.496;2023-06-26T13:51:43;8.80;;;5.10;;
26600;SDS011;14241;49.260;10.496;2023-06-26T13:54:12;7.10;;;5.25;;
26600;SDS011;14241;49.260;10.496;2023-06-26T13:56:37;7.15;;;5.18;;
26600;SDS011;14241;49.260;10.496;2023-06-26T13:59:02;9.55;;;5.32;;
26600;SDS011;14241;49.260;10.496;2023-06-26T14:01:28;7.30;;;5.73;;
26600;SDS011;14241;49.260;10.496;2023-06-26T14:03:53;8.53;;;5.00;;
26600;SDS011;14241;49.260;10.496;2023-06-26T14:06:18;5.83;;;4.93;;
26600;SDS011;14241;49.260;10.496;2023-06-26T14:08:43;7.30;;;5.83;;
26600;SDS011;14241;49.260;10.496;2023-06-26T14:11:09;12.97;;;5.50;;
26600;SDS011;14241;49.260;10.496;2023-06-26T14:13:34;7.50;;;5.50;;
26600;SDS011;14241;49.260;10.496;2023-06-26T14:16:00;7.57;;;5.68;;
26600;SDS011;14241;49.260;10.496;2023-06-26T14:18:25;10.30;;;5.23;;
26600;SDS011;14241;49.260;10.496;2023-06-26T14:20:50;6.35;;;5.50;;
26600;SDS011;14241;49.260;10.496;2023-06-26T14:23:15;7.60;;;5.87;;
26600;SDS011;14241;49.260;10.496;2023-06-26T14:25:40;10.77;;;5.23;;
26600;SDS011;14241;49.260;10.496;2023-06-26T14:28:06;9.65;;;5.70;;
26600;SDS011;14241;49.260;10.496;2023-06-26T14:30:31;8.13;;;5.73;;
26600;SDS011;14241;49.260;10.496;2023-06-26T14:32:56;8.83;;;5.43;;
26600;SDS011;14241;49.260;10.496;2023-06-26T14:35:22;8.05;;;5.90;;
26600;SDS011;14241;49.260;10.496;2023-06-26T14:37:47;7.57;;;5.00;;
26600;SDS011;14241;49.260;10.496;2023-06-26T14:40:13;9.80;;;5.93;;